createdAt,value
2017-10-31T00:01:24.886Z,4.50
2017-10-31T00:03:52.354Z,4.83
2017-10-31T00:06:20.572Z,3.60
2017-10-31T00:08:48.078Z,4.13
2017-10-31T00:11:15.554Z,3.60
2017-10-31T00:13:43.779Z,4.37
2017-10-31T00:16:11.990Z,4.10
2017-10-31T00:18:39.469Z,4.50
2017-10-31T00:21:06.926Z,4.47
2017-10-31T00:23:34.381Z,4.17
2017-10-31T00:26:01.860Z,4.50
2017-10-31T00:28:29.333Z,3.57
2017-10-31T00:30:56.784Z,4.83
2017-10-31T00:33:24.236Z,3.87
2017-10-31T00:35:51.897Z,4.07
2017-10-31T00:38:19.354Z,4.27
2017-10-31T00:40:46.807Z,3.93
2017-10-31T00:43:14.274Z,4.17
2017-10-31T00:45:41.727Z,4.50
2017-10-31T00:48:09.168Z,5.00
2017-10-31T00:50:36.632Z,5.07
2017-10-31T00:53:04.094Z,5.13
2017-10-31T00:55:31.563Z,4.47
2017-10-31T00:57:59.049Z,4.77
2017-10-31T01:00:27.344Z,4.97
2017-10-31T01:02:54.818Z,5.87
2017-10-31T01:05:23.039Z,5.37
2017-10-31T01:07:50.509Z,5.43
2017-10-31T01:10:17.953Z,4.87
2017-10-31T01:12:45.408Z,5.00
2017-10-31T01:15:12.890Z,5.57
2017-10-31T01:17:40.337Z,4.90
2017-10-31T01:20:07.813Z,4.93
2017-10-31T01:22:35.262Z,4.83
2017-10-31T01:25:02.712Z,4.90
2017-10-31T01:27:30.179Z,4.77
2017-10-31T01:29:58.698Z,4.40
2017-10-31T01:32:26.948Z,5.40
2017-10-31T01:34:54.394Z,5.10
2017-10-31T01:37:22.618Z,4.70
2017-10-31T01:39:50.094Z,4.43
2017-10-31T01:42:17.544Z,5.10
2017-10-31T01:44:45.010Z,4.47
2017-10-31T01:47:12.472Z,3.87
2017-10-31T01:49:39.966Z,4.13
2017-10-31T01:52:07.554Z,4.53
2017-10-31T01:54:35.035Z,4.67
2017-10-31T01:57:03.270Z,5.90
2017-10-31T02:02:21.265Z,4.30
2017-10-31T02:04:48.758Z,5.00
2017-10-31T02:07:16.221Z,5.67
2017-10-31T02:09:43.681Z,4.80
2017-10-31T02:12:11.146Z,4.73
2017-10-31T02:14:38.627Z,4.70
2017-10-31T02:17:06.094Z,5.03
2017-10-31T02:19:33.567Z,5.67
2017-10-31T02:22:01.009Z,5.07
2017-10-31T02:24:28.481Z,5.20
2017-10-31T02:26:55.937Z,4.53
2017-10-31T02:29:23.401Z,5.73
2017-10-31T02:31:50.844Z,4.90
2017-10-31T02:34:18.365Z,5.00
2017-10-31T02:36:45.850Z,5.53
2017-10-31T02:39:16.847Z,5.23
2017-10-31T02:41:44.329Z,5.23
2017-10-31T02:44:11.785Z,5.17
2017-10-31T02:46:39.242Z,5.00
2017-10-31T02:49:06.721Z,5.13
2017-10-31T02:51:34.166Z,5.33
2017-10-31T02:54:01.647Z,5.13
2017-10-31T02:56:29.117Z,5.50
2017-10-31T02:58:56.610Z,5.83
2017-10-31T03:01:24.101Z,6.03
2017-10-31T03:03:51.563Z,4.83
2017-10-31T03:06:19.026Z,5.37
2017-10-31T03:08:46.473Z,5.47
2017-10-31T03:11:14.042Z,4.80
2017-10-31T03:13:41.506Z,6.00
2017-10-31T03:16:08.992Z,6.63
2017-10-31T03:18:36.452Z,5.63
2017-10-31T03:21:03.916Z,5.27
2017-10-31T03:23:31.368Z,5.30
2017-10-31T03:25:58.812Z,4.70
2017-10-31T03:28:26.297Z,6.23
2017-10-31T03:30:53.759Z,6.03
2017-10-31T03:33:21.198Z,6.87
2017-10-31T03:35:48.678Z,5.40
2017-10-31T03:38:16.154Z,5.43
2017-10-31T03:40:43.630Z,5.40
2017-10-31T03:43:11.079Z,5.90
2017-10-31T03:45:39.329Z,5.85
2017-10-31T03:48:06.821Z,6.10
2017-10-31T03:50:34.273Z,5.80
2017-10-31T03:53:01.744Z,5.23
2017-10-31T03:55:29.191Z,5.47
2017-10-31T03:57:56.672Z,4.87
2017-10-31T04:00:24.158Z,5.03
2017-10-31T04:02:52.374Z,4.30
2017-10-31T04:05:19.834Z,4.63
2017-10-31T04:07:47.305Z,5.10
2017-10-31T04:10:14.762Z,5.57
2017-10-31T04:12:42.336Z,5.07
2017-10-31T04:15:09.818Z,5.87
2017-10-31T04:17:37.274Z,6.03
2017-10-31T04:20:04.733Z,5.50
2017-10-31T04:22:32.212Z,5.20
2017-10-31T04:24:59.716Z,7.23
2017-10-31T04:27:27.182Z,5.60
2017-10-31T04:29:54.630Z,5.67
2017-10-31T04:32:22.103Z,6.80
2017-10-31T04:34:49.581Z,7.43
2017-10-31T04:37:17.140Z,7.37
2017-10-31T04:39:45.398Z,7.10
2017-10-31T04:42:13.105Z,7.63
2017-10-31T04:44:40.586Z,7.77
2017-10-31T04:47:08.058Z,8.97
2017-10-31T04:49:35.554Z,7.33
2017-10-31T04:52:03.020Z,8.50
2017-10-31T04:54:30.477Z,8.87
2017-10-31T04:56:57.959Z,9.83
2017-10-31T04:59:25.411Z,10.00
2017-10-31T05:01:53.200Z,9.67
2017-10-31T05:04:20.867Z,9.07
2017-10-31T05:06:48.316Z,10.40
2017-10-31T05:09:15.821Z,9.93
2017-10-31T05:11:43.338Z,9.60
2017-10-31T05:14:10.797Z,10.00
2017-10-31T05:16:38.358Z,11.30
2017-10-31T05:19:05.851Z,11.57
2017-10-31T05:21:33.322Z,11.40
2017-10-31T05:24:00.810Z,12.03
2017-10-31T05:26:28.257Z,12.93
2017-10-31T05:28:56.473Z,12.00
2017-10-31T05:31:23.955Z,11.70
2017-10-31T05:33:51.428Z,10.90
2017-10-31T05:36:19.686Z,11.97
2017-10-31T05:38:47.146Z,10.80
2017-10-31T05:41:14.621Z,11.30
2017-10-31T05:43:42.076Z,10.80
2017-10-31T05:46:09.561Z,10.60
2017-10-31T05:48:37.050Z,11.30
2017-10-31T05:51:04.508Z,10.03
2017-10-31T05:53:32.029Z,10.33
2017-10-31T05:56:00.288Z,10.83
2017-10-31T05:58:27.747Z,11.20
2017-10-31T06:00:55.223Z,9.60
2017-10-31T06:03:23.486Z,10.93
2017-10-31T06:05:51.762Z,10.77
2017-10-31T06:08:19.424Z,9.83
2017-10-31T06:10:46.902Z,10.97
2017-10-31T06:13:15.190Z,10.70
2017-10-31T06:15:42.642Z,10.20
2017-10-31T06:18:10.155Z,10.07
2017-10-31T06:20:37.639Z,11.33
2017-10-31T06:23:11.579Z,10.10
2017-10-31T06:25:44.774Z,11.83
2017-10-31T06:28:17.919Z,10.30
2017-10-31T06:30:50.969Z,10.93
2017-10-31T06:33:18.422Z,10.23
2017-10-31T06:35:45.907Z,10.33
2017-10-31T06:38:13.390Z,10.07
2017-10-31T06:40:40.849Z,10.57
2017-10-31T06:43:08.330Z,10.27
2017-10-31T06:45:35.826Z,10.40
2017-10-31T06:48:04.053Z,10.37
2017-10-31T06:50:31.489Z,9.90
2017-10-31T06:52:59.022Z,8.93
2017-10-31T06:55:26.505Z,9.00
2017-10-31T06:57:54.016Z,10.03
2017-10-31T07:00:21.643Z,9.97
2017-10-31T07:02:50.011Z,8.45
2017-10-31T07:07:51.465Z,8.53
2017-10-31T07:10:19.114Z,10.27
2017-10-31T07:12:46.743Z,9.52
2017-10-31T07:15:14.344Z,9.40
2017-10-31T07:17:42.595Z,8.70
2017-10-31T07:20:10.151Z,7.93
2017-10-31T07:22:37.818Z,7.77
2017-10-31T07:25:05.391Z,8.23
2017-10-31T07:27:33.056Z,8.03
2017-10-31T07:30:00.670Z,6.87
2017-10-31T07:32:29.000Z,8.57
2017-10-31T07:34:56.604Z,7.05
2017-10-31T07:37:24.960Z,7.90
2017-10-31T07:39:52.479Z,7.33
2017-10-31T07:42:20.001Z,8.07
2017-10-31T07:44:48.260Z,7.80
2017-10-31T07:47:16.148Z,8.20
2017-10-31T07:49:43.713Z,7.30
2017-10-31T07:52:14.202Z,7.90
2017-10-31T07:54:41.678Z,6.83
2017-10-31T07:57:09.321Z,8.33
2017-10-31T07:59:36.797Z,6.80
2017-10-31T08:02:04.446Z,7.07
2017-10-31T08:04:31.993Z,7.43
2017-10-31T08:06:59.549Z,7.70
2017-10-31T08:09:27.145Z,8.60
2017-10-31T08:11:54.853Z,6.60
2017-10-31T08:14:23.027Z,7.70
2017-10-31T08:16:50.723Z,7.68
2017-10-31T08:19:18.243Z,5.82
2017-10-31T08:21:45.858Z,6.57
2017-10-31T08:24:13.762Z,6.23
2017-10-31T08:26:41.496Z,7.57
2017-10-31T08:29:09.173Z,6.93
2017-10-31T08:31:37.485Z,6.87
2017-10-31T08:34:05.098Z,7.63
2017-10-31T08:36:33.014Z,7.20
2017-10-31T08:39:00.513Z,6.50
2017-10-31T08:41:27.992Z,7.73
2017-10-31T08:43:55.828Z,7.83
2017-10-31T08:46:23.602Z,8.20
2017-10-31T08:48:51.353Z,6.60
2017-10-31T08:51:19.119Z,7.60
2017-10-31T08:53:46.917Z,7.27
2017-10-31T08:56:14.501Z,8.33
2017-10-31T08:58:43.068Z,8.83
2017-10-31T09:01:10.596Z,7.90
2017-10-31T09:03:38.873Z,5.37
2017-10-31T09:06:07.132Z,8.50
2017-10-31T09:08:34.635Z,8.30
2017-10-31T09:11:02.555Z,6.90
2017-10-31T09:13:30.245Z,8.40
2017-10-31T09:15:57.928Z,7.97
2017-10-31T09:18:25.509Z,7.03
2017-10-31T09:20:54.020Z,7.40
2017-10-31T09:23:21.553Z,8.27
2017-10-31T09:25:49.112Z,7.73
2017-10-31T09:28:17.358Z,8.50
2017-10-31T09:30:45.370Z,8.00
2017-10-31T09:33:13.310Z,7.23
2017-10-31T09:35:41.724Z,7.57
2017-10-31T09:38:09.261Z,7.57
2017-10-31T09:40:37.480Z,7.63
2017-10-31T09:43:05.049Z,9.20
2017-10-31T09:45:32.907Z,9.17
2017-10-31T09:48:00.350Z,9.00
2017-10-31T09:50:27.886Z,7.43
2017-10-31T09:52:55.875Z,6.93
2017-10-31T09:55:23.874Z,8.10
2017-10-31T09:57:51.426Z,7.67
2017-10-31T10:00:18.959Z,8.23
2017-10-31T10:02:46.442Z,8.40
2017-10-31T10:05:13.929Z,8.40
2017-10-31T10:07:42.232Z,7.37
2017-10-31T10:10:11.207Z,4.60
2017-10-31T10:12:38.696Z,7.33
2017-10-31T10:15:06.210Z,7.50
2017-10-31T10:17:34.452Z,5.73
2017-10-31T10:20:02.606Z,6.80
2017-10-31T10:22:30.495Z,4.70
2017-10-31T10:24:58.218Z,5.27
2017-10-31T10:27:25.896Z,5.77
2017-10-31T10:29:53.619Z,7.97
2017-10-31T10:32:22.032Z,8.10
2017-10-31T10:34:49.918Z,5.70
2017-10-31T10:37:18.575Z,5.63
2017-10-31T10:39:47.089Z,5.40
2017-10-31T10:42:15.338Z,5.70
2017-10-31T10:44:43.096Z,4.87
2017-10-31T10:47:11.015Z,4.30
2017-10-31T10:49:38.663Z,7.13
2017-10-31T10:52:06.146Z,4.00
2017-10-31T10:54:33.797Z,6.27
2017-10-31T10:57:01.468Z,5.90
2017-10-31T10:59:29.194Z,5.20
2017-10-31T11:01:57.645Z,5.97
2017-10-31T11:04:25.243Z,6.93
2017-10-31T11:06:53.105Z,4.57
2017-10-31T11:09:21.066Z,5.60
2017-10-31T11:11:49.456Z,5.40
2017-10-31T11:14:16.949Z,6.50
2017-10-31T11:16:44.888Z,5.63
2017-10-31T11:19:12.980Z,6.20
2017-10-31T11:21:40.505Z,3.97
2017-10-31T11:24:09.020Z,6.00
2017-10-31T11:26:36.510Z,6.23
2017-10-31T11:29:04.382Z,6.20
2017-10-31T11:31:31.938Z,5.03
2017-10-31T11:33:59.775Z,5.33
2017-10-31T11:36:27.457Z,3.10
2017-10-31T11:38:56.942Z,6.75
2017-10-31T11:41:24.398Z,3.83
2017-10-31T11:43:52.183Z,6.93
2017-10-31T11:46:20.139Z,5.77
2017-10-31T11:48:48.426Z,5.50
2017-10-31T11:51:16.305Z,7.53
2017-10-31T11:53:43.832Z,5.67
2017-10-31T11:56:12.468Z,5.30
2017-10-31T11:58:40.220Z,6.90
2017-10-31T12:01:08.093Z,5.07
2017-10-31T12:03:35.756Z,4.10
2017-10-31T12:06:03.265Z,5.13
2017-10-31T12:08:31.650Z,5.10
2017-10-31T12:10:59.173Z,5.93
2017-10-31T12:13:26.888Z,6.20
2017-10-31T12:15:54.510Z,5.47
2017-10-31T12:18:22.279Z,6.87
2017-10-31T12:20:49.892Z,7.17
2017-10-31T12:23:18.708Z,6.00
2017-10-31T12:25:46.210Z,6.53
2017-10-31T12:28:14.456Z,6.50
2017-10-31T12:30:41.942Z,6.00
2017-10-31T12:33:10.165Z,4.17
2017-10-31T12:35:37.614Z,5.27
2017-10-31T12:38:05.115Z,5.97
2017-10-31T12:40:32.567Z,5.07
2017-10-31T12:43:00.031Z,5.07
2017-10-31T12:45:27.534Z,5.20
2017-10-31T12:47:55.096Z,4.90
2017-10-31T12:50:22.562Z,4.50
2017-10-31T12:52:50.042Z,3.30
2017-10-31T12:55:17.508Z,5.50
2017-10-31T12:57:44.981Z,4.10
2017-10-31T13:00:12.455Z,4.10
2017-10-31T13:02:40.676Z,6.27
2017-10-31T13:05:08.153Z,4.50
2017-10-31T13:07:35.625Z,4.57
2017-10-31T13:10:03.107Z,4.60
2017-10-31T13:12:31.345Z,4.60
2017-10-31T13:14:58.838Z,4.17
2017-10-31T13:17:27.085Z,5.20
2017-10-31T13:19:54.541Z,4.33
2017-10-31T13:22:22.002Z,5.63
2017-10-31T13:24:49.486Z,3.97
2017-10-31T13:27:17.981Z,4.70
2017-10-31T13:29:46.594Z,5.30
2017-10-31T13:32:14.402Z,4.57
2017-10-31T13:34:42.096Z,5.27
2017-10-31T13:37:10.668Z,4.00
2017-10-31T13:39:39.141Z,5.93
2017-10-31T13:42:06.954Z,5.60
2017-10-31T13:44:34.674Z,5.37
2017-10-31T13:47:02.198Z,6.07
2017-10-31T13:49:30.018Z,4.67
2017-10-31T13:51:58.555Z,6.90
2017-10-31T13:54:26.015Z,5.13
2017-10-31T13:56:53.497Z,5.33
2017-10-31T13:59:20.962Z,7.17
2017-10-31T14:01:54.359Z,4.90
2017-10-31T14:04:22.022Z,6.33
2017-10-31T14:06:50.036Z,8.03
2017-10-31T14:09:17.690Z,5.80
2017-10-31T14:11:45.361Z,8.70
2017-10-31T14:14:12.842Z,7.20
2017-10-31T14:16:40.302Z,8.57
2017-10-31T14:19:07.789Z,5.27
2017-10-31T14:21:35.247Z,7.57
2017-10-31T14:24:03.480Z,8.80
2017-10-31T14:26:30.958Z,6.47
2017-10-31T14:28:58.415Z,6.77
2017-10-31T14:31:25.895Z,6.97
2017-10-31T14:33:53.359Z,6.00
2017-10-31T14:36:20.859Z,9.27
2017-10-31T14:38:48.311Z,6.77
2017-10-31T14:41:15.789Z,6.10
2017-10-31T14:43:43.274Z,6.53
2017-10-31T14:46:10.754Z,7.67
2017-10-31T14:48:38.979Z,6.97
2017-10-31T14:51:06.470Z,5.80
2017-10-31T14:53:33.934Z,5.53
2017-10-31T14:56:01.401Z,7.40
2017-10-31T14:58:28.873Z,6.43
2017-10-31T15:00:57.118Z,7.17
2017-10-31T15:03:24.588Z,7.60
2017-10-31T15:05:52.049Z,6.83
2017-10-31T15:08:21.217Z,6.80
2017-10-31T15:10:48.714Z,7.07
2017-10-31T15:13:16.937Z,6.87
2017-10-31T15:15:44.394Z,6.90
2017-10-31T15:18:11.886Z,7.13
2017-10-31T15:20:39.342Z,6.37
2017-10-31T15:23:06.792Z,6.47
2017-10-31T15:25:34.280Z,6.37
2017-10-31T15:28:02.511Z,7.27
2017-10-31T15:30:29.988Z,6.63
2017-10-31T15:32:57.441Z,6.87
2017-10-31T15:35:24.930Z,7.00
2017-10-31T15:37:53.151Z,7.13
2017-10-31T15:40:22.144Z,6.65
2017-10-31T15:42:49.626Z,6.93
2017-10-31T15:45:17.086Z,7.20
2017-10-31T15:47:44.574Z,7.67
2017-10-31T15:50:12.799Z,7.90
2017-10-31T15:52:40.268Z,6.57
2017-10-31T15:55:07.754Z,8.57
2017-10-31T15:57:35.214Z,6.53
2017-10-31T16:00:02.675Z,6.90
2017-10-31T16:02:30.930Z,6.97
2017-10-31T16:04:58.382Z,6.97
2017-10-31T16:07:25.866Z,6.83
2017-10-31T16:09:53.318Z,6.60
2017-10-31T16:12:20.801Z,7.63
2017-10-31T16:14:49.055Z,6.73
2017-10-31T16:17:16.519Z,7.07
2017-10-31T16:19:43.998Z,6.60
2017-10-31T16:22:11.469Z,7.03
2017-10-31T16:24:38.950Z,7.30
2017-10-31T16:27:06.407Z,5.90
2017-10-31T16:29:33.886Z,7.00
2017-10-31T16:32:01.343Z,7.63
2017-10-31T16:34:28.821Z,6.90
2017-10-31T16:36:56.270Z,6.13
2017-10-31T16:39:23.752Z,7.30
2017-10-31T16:41:51.215Z,7.97
2017-10-31T16:44:18.698Z,6.60
2017-10-31T16:46:46.262Z,6.90
2017-10-31T16:49:13.723Z,5.60
2017-10-31T16:51:41.204Z,8.13
2017-10-31T16:54:08.683Z,7.67
2017-10-31T16:56:36.547Z,7.40
2017-10-31T16:59:04.997Z,7.30
2017-10-31T17:01:32.542Z,6.17
2017-10-31T17:04:00.100Z,7.35
2017-10-31T17:06:28.875Z,6.13
2017-10-31T17:08:56.390Z,6.17
2017-10-31T17:11:23.869Z,7.43
2017-10-31T17:13:51.485Z,7.33
2017-10-31T17:16:19.011Z,8.40
2017-10-31T17:18:46.588Z,7.40
2017-10-31T17:21:14.401Z,7.00
2017-10-31T17:23:42.130Z,7.70
2017-10-31T17:26:09.628Z,8.60
2017-10-31T17:28:37.360Z,6.03
2017-10-31T17:31:05.051Z,6.73
2017-10-31T17:33:32.771Z,8.33
2017-10-31T17:36:00.634Z,7.93
2017-10-31T17:38:28.387Z,8.57
2017-10-31T17:40:56.776Z,7.67
2017-10-31T17:43:24.486Z,7.90
2017-10-31T17:45:52.204Z,7.80
2017-10-31T17:48:20.835Z,12.60
2017-10-31T17:50:48.282Z,7.93
2017-10-31T17:53:15.805Z,7.50
2017-10-31T17:55:43.481Z,7.20
2017-10-31T17:58:11.290Z,9.60
2017-10-31T18:00:38.765Z,7.87
2017-10-31T18:03:06.213Z,8.23
2017-10-31T18:05:33.717Z,8.10
2017-10-31T18:08:01.667Z,7.70
2017-10-31T18:10:29.125Z,6.50
2017-10-31T18:12:56.576Z,7.60
2017-10-31T18:15:24.620Z,8.02
2017-10-31T18:17:52.522Z,7.50
2017-10-31T18:20:20.761Z,6.87
2017-10-31T18:22:48.401Z,8.93
2017-10-31T18:25:15.901Z,7.10
2017-10-31T18:27:43.377Z,8.50
2017-10-31T18:30:11.331Z,8.67
2017-10-31T18:32:39.291Z,8.30
2017-10-31T18:35:06.949Z,8.60
2017-10-31T18:37:34.652Z,7.40
2017-10-31T18:40:02.216Z,6.80
2017-10-31T18:42:29.760Z,7.60
2017-10-31T18:44:58.548Z,8.17
2017-10-31T18:47:26.026Z,8.47
2017-10-31T18:49:53.501Z,8.00
2017-10-31T18:52:21.014Z,8.87
2017-10-31T18:54:49.264Z,8.70
2017-10-31T18:57:16.713Z,7.87
2017-10-31T18:59:44.180Z,6.13
2017-10-31T19:02:11.669Z,8.10
2017-10-31T19:04:39.997Z,8.10
2017-10-31T19:07:07.503Z,8.37
2017-10-31T19:09:34.974Z,8.47
2017-10-31T19:12:02.470Z,7.47
2017-10-31T19:14:29.978Z,7.03
2017-10-31T19:16:58.254Z,8.27
2017-10-31T19:19:26.500Z,7.93
2017-10-31T19:21:53.990Z,7.87
2017-10-31T19:24:22.232Z,8.50
2017-10-31T19:26:49.681Z,7.63
2017-10-31T19:29:17.146Z,7.70
2017-10-31T19:31:44.634Z,9.20
2017-10-31T19:34:12.086Z,7.20
2017-10-31T19:36:39.546Z,7.13
2017-10-31T19:39:07.037Z,7.90
2017-10-31T19:41:34.493Z,8.40
2017-10-31T19:44:02.706Z,4.40
2017-10-31T19:46:30.234Z,6.20
2017-10-31T19:48:57.718Z,8.07
2017-10-31T19:51:26.123Z,6.67
2017-10-31T19:53:53.617Z,8.80
2017-10-31T19:56:21.846Z,10.33
2017-10-31T19:58:49.307Z,8.17
2017-10-31T20:01:16.887Z,8.17
2017-10-31T20:03:44.337Z,7.87
2017-10-31T20:06:12.172Z,9.23
2017-10-31T20:08:39.830Z,8.27
2017-10-31T20:11:07.339Z,6.97
2017-10-31T20:13:34.952Z,7.90
2017-10-31T20:16:02.501Z,8.80
2017-10-31T20:18:29.974Z,8.40
2017-10-31T20:20:57.550Z,7.37
2017-10-31T20:23:25.045Z,8.40
2017-10-31T20:25:52.522Z,8.40
2017-10-31T20:28:19.985Z,8.20
2017-10-31T20:30:47.454Z,9.10
2017-10-31T20:33:14.918Z,8.10
2017-10-31T20:35:42.394Z,7.80
2017-10-31T20:38:09.855Z,8.80
2017-10-31T20:40:37.328Z,9.00
2017-10-31T20:43:04.811Z,8.50
2017-10-31T20:45:33.102Z,8.70
2017-10-31T20:48:01.352Z,9.60
2017-10-31T20:50:29.081Z,8.77
2017-10-31T20:52:56.997Z,7.87
2017-10-31T20:55:24.473Z,8.50
2017-10-31T20:57:51.922Z,9.30
2017-10-31T21:00:19.400Z,8.37
2017-10-31T21:02:46.884Z,9.13
2017-10-31T21:05:14.518Z,8.60
2017-10-31T21:07:41.970Z,10.20
2017-10-31T21:10:09.433Z,8.33
2017-10-31T21:12:36.913Z,9.33
2017-10-31T21:15:04.442Z,9.63
2017-10-31T21:17:32.663Z,7.70
2017-10-31T21:20:00.142Z,9.13
2017-10-31T21:22:27.614Z,9.20
2017-10-31T21:24:55.090Z,10.50
2017-10-31T21:27:23.316Z,9.13
2017-10-31T21:29:50.791Z,8.50
2017-10-31T21:32:18.287Z,8.13
2017-10-31T21:34:45.749Z,9.43
2017-10-31T21:37:13.289Z,9.10
2017-10-31T21:39:41.542Z,9.80
2017-10-31T21:42:09.806Z,10.77
2017-10-31T21:44:37.315Z,9.60
2017-10-31T21:47:05.549Z,12.13
2017-10-31T21:49:33.030Z,7.73
2017-10-31T21:52:00.486Z,10.60
2017-10-31T21:54:28.062Z,9.50
2017-10-31T21:56:55.534Z,10.73
2017-10-31T21:59:22.998Z,10.80
2017-10-31T22:01:50.474Z,10.40
2017-10-31T22:04:17.938Z,8.30
2017-10-31T22:06:45.482Z,9.77
2017-10-31T22:09:12.949Z,9.53
2017-10-31T22:11:40.398Z,8.73
2017-10-31T22:14:07.882Z,9.70
2017-10-31T22:16:35.340Z,10.33
2017-10-31T22:19:02.818Z,8.90
2017-10-31T22:21:31.138Z,10.63
2017-10-31T22:23:58.614Z,12.20
2017-10-31T22:26:26.089Z,11.30
2017-10-31T22:28:53.554Z,9.50
2017-10-31T22:31:21.037Z,10.20
2017-10-31T22:33:48.493Z,9.30
2017-10-31T22:36:16.783Z,11.47
2017-10-31T22:38:45.026Z,10.97
2017-10-31T22:41:12.485Z,10.93
2017-10-31T22:43:39.962Z,10.67
2017-10-31T22:46:07.474Z,10.87
2017-10-31T22:48:34.965Z,10.17
2017-10-31T22:51:02.419Z,10.73
2017-10-31T22:53:29.898Z,9.40
2017-10-31T22:55:57.358Z,10.90
2017-10-31T22:58:24.860Z,10.03
2017-10-31T23:00:52.331Z,10.18
2017-10-31T23:03:19.785Z,10.53
2017-10-31T23:05:47.320Z,11.07
2017-10-31T23:08:14.805Z,10.07
2017-10-31T23:10:42.262Z,8.53
2017-10-31T23:13:09.721Z,9.97
2017-10-31T23:15:37.205Z,8.87
2017-10-31T23:18:04.666Z,9.77
2017-10-31T23:20:32.174Z,11.27
2017-10-31T23:22:59.622Z,6.70
2017-10-31T23:25:27.082Z,10.27
2017-10-31T23:27:54.567Z,12.43
2017-10-31T23:30:22.022Z,9.40
2017-10-31T23:32:49.497Z,11.90
2017-10-31T23:35:17.850Z,11.00
2017-10-31T23:37:45.340Z,11.80
2017-10-31T23:40:12.794Z,11.80
2017-10-31T23:42:40.254Z,10.57
2017-10-31T23:45:07.735Z,9.07
2017-10-31T23:47:35.190Z,12.87
2017-10-31T23:50:02.680Z,12.50
2017-10-31T23:52:30.995Z,12.23
2017-10-31T23:54:58.446Z,10.80
2017-10-31T23:57:25.930Z,10.37
2017-10-31T23:59:53.402Z,12.60
